createdAt,value
2019-02-06T00:00:32.917Z,1006.5
2019-02-06T00:01:34.281Z,1006.5
2019-02-06T00:02:35.668Z,1006.5
2019-02-06T00:03:37.063Z,1006.4
2019-02-06T00:04:38.450Z,1006.4
2019-02-06T00:05:39.834Z,1006.4
2019-02-06T00:06:41.215Z,1006.4
2019-02-06T00:07:42.598Z,1006.4
2019-02-06T00:08:43.992Z,1006.4
2019-02-06T00:09:45.457Z,1006.4
2019-02-06T00:10:46.702Z,1006.3
2019-02-06T00:11:48.066Z,1006.3
2019-02-06T00:12:49.443Z,1006.3
2019-02-06T00:13:50.826Z,1006.3
2019-02-06T00:14:52.193Z,1006.3
2019-02-06T00:15:53.619Z,1006.3
2019-02-06T00:16:54.923Z,1006.3
2019-02-06T00:17:56.254Z,1006.3
2019-02-06T00:18:57.629Z,1006.3
2019-02-06T00:19:58.950Z,1006.3
2019-02-06T00:21:00.335Z,1006.3
2019-02-06T00:22:01.680Z,1006.3
2019-02-06T00:23:03.086Z,1006.3
2019-02-06T00:24:04.449Z,1006.3
2019-02-06T00:25:05.814Z,1006.3
2019-02-06T00:26:07.187Z,1006.3
2019-02-06T00:27:08.556Z,1006.3
2019-02-06T00:28:09.936Z,1006.3
2019-02-06T00:29:11.344Z,1006.3
2019-02-06T00:30:12.678Z,1006.3
2019-02-06T00:31:14.060Z,1006.3
2019-02-06T00:32:15.430Z,1006.2
2019-02-06T00:33:16.812Z,1006.3
2019-02-06T00:34:18.176Z,1006.3
2019-02-06T00:35:25.726Z,1006.2
2019-02-06T00:36:21.155Z,1006.2
2019-02-06T00:37:22.541Z,1006.2
2019-02-06T00:38:23.937Z,1006.2
2019-02-06T00:39:25.289Z,1006.2
2019-02-06T00:40:26.651Z,1006.2
2019-02-06T00:41:28.026Z,1006.2
2019-02-06T00:42:29.401Z,1006.2
2019-02-06T00:43:30.766Z,1006.2
2019-02-06T00:44:32.137Z,1006.2
2019-02-06T00:45:33.637Z,1006.2
2019-02-06T00:46:34.848Z,1006.2
2019-02-06T00:47:36.233Z,1006.2
2019-02-06T00:48:37.611Z,1006.2
2019-02-06T00:49:38.978Z,1006.2
2019-02-06T00:50:40.362Z,1006.2
2019-02-06T00:51:41.793Z,1006.2
2019-02-06T00:52:43.154Z,1006.1
2019-02-06T00:53:44.538Z,1006.1
2019-02-06T00:54:45.910Z,1006.1
2019-02-06T00:55:47.270Z,1006.1
2019-02-06T00:56:48.610Z,1006.1
2019-02-06T00:57:50.039Z,1006.1
2019-02-06T00:58:51.418Z,1006.1
2019-02-06T00:59:52.973Z,1006.0
2019-02-06T01:00:54.347Z,1006.1
2019-02-06T01:01:55.747Z,1006.1
2019-02-06T01:02:57.148Z,1006.1
2019-02-06T01:03:58.548Z,1006.1
2019-02-06T01:04:59.876Z,1006.1
2019-02-06T01:06:01.250Z,1006.1
2019-02-06T01:07:02.619Z,1006.1
2019-02-06T01:08:03.989Z,1006.1
2019-02-06T01:09:05.363Z,1006.1
2019-02-06T01:10:06.730Z,1006.1
2019-02-06T01:11:08.123Z,1006.0
2019-02-06T01:12:09.490Z,1006.0
2019-02-06T01:13:10.858Z,1006.0
2019-02-06T01:14:12.191Z,1006.1
2019-02-06T01:15:13.562Z,1006.0
2019-02-06T01:16:14.940Z,1006.0
2019-02-06T01:17:16.351Z,1006.0
2019-02-06T01:18:17.742Z,1006.1
2019-02-06T01:19:19.106Z,1006.0
2019-02-06T01:20:20.486Z,1006.0
2019-02-06T01:21:21.847Z,1006.0
2019-02-06T01:22:23.226Z,1006.0
2019-02-06T01:23:24.564Z,1006.0
2019-02-06T01:24:25.947Z,1006.0
2019-02-06T01:25:27.314Z,1006.0
2019-02-06T01:26:28.692Z,1006.0
2019-02-06T01:27:30.075Z,1006.0
2019-02-06T01:28:31.446Z,1006.0
2019-02-06T01:29:32.813Z,1006.0
2019-02-06T01:30:34.191Z,1006.0
2019-02-06T01:31:35.565Z,1006.0
2019-02-06T01:32:36.900Z,1006.0
2019-02-06T01:33:38.305Z,1006.0
2019-02-06T01:34:39.667Z,1006.0
2019-02-06T01:35:49.651Z,1006.1
2019-02-06T01:36:42.380Z,1006.0
2019-02-06T01:37:43.757Z,1006.0
2019-02-06T01:38:45.126Z,1006.0
2019-02-06T01:39:46.494Z,1006.0
2019-02-06T01:40:47.858Z,1006.0
2019-02-06T01:41:49.238Z,1006.1
2019-02-06T01:42:50.613Z,1006.1
2019-02-06T01:43:51.991Z,1006.1
2019-02-06T01:44:53.364Z,1006.1
2019-02-06T01:45:54.738Z,1006.1
2019-02-06T01:46:56.118Z,1006.1
2019-02-06T01:47:57.494Z,1006.1
2019-02-06T01:48:58.872Z,1006.1
2019-02-06T01:50:00.311Z,1006.2
2019-02-06T01:51:01.540Z,1006.2
2019-02-06T01:52:02.922Z,1006.1
2019-02-06T01:53:04.900Z,1006.1
2019-02-06T01:54:06.267Z,1006.1
2019-02-06T01:55:07.649Z,1006.2
2019-02-06T01:56:09.006Z,1006.1
2019-02-06T01:57:10.378Z,1006.1
2019-02-06T01:58:11.767Z,1006.1
2019-02-06T01:59:13.107Z,1006.1
2019-02-06T02:00:14.476Z,1006.1
2019-02-06T02:01:15.845Z,1006.1
2019-02-06T02:02:17.216Z,1006.1
2019-02-06T02:03:18.582Z,1006.1
2019-02-06T02:04:19.948Z,1006.1
2019-02-06T02:05:21.313Z,1006.1
2019-02-06T02:06:22.688Z,1006.1
2019-02-06T02:07:24.058Z,1006.1
2019-02-06T02:08:25.392Z,1006.1
2019-02-06T02:09:26.724Z,1006.0
2019-02-06T02:10:28.084Z,1006.0
2019-02-06T02:11:29.479Z,1006.0
2019-02-06T02:12:30.844Z,1006.0
2019-02-06T02:13:32.215Z,1006.0
2019-02-06T02:14:33.587Z,1006.0
2019-02-06T02:15:34.956Z,1006.0
2019-02-06T02:16:36.320Z,1006.0
2019-02-06T02:17:37.652Z,1006.0
2019-02-06T02:18:39.025Z,1006.0
2019-02-06T02:19:40.387Z,1006.0
2019-02-06T02:20:41.756Z,1006.0
2019-02-06T02:21:43.138Z,1005.9
2019-02-06T02:22:44.505Z,1005.9
2019-02-06T02:23:45.879Z,1005.9
2019-02-06T02:24:47.242Z,1005.9
2019-02-06T02:25:48.608Z,1005.9
2019-02-06T02:26:49.939Z,1005.9
2019-02-06T02:27:51.309Z,1005.9
2019-02-06T02:28:52.673Z,1005.9
2019-02-06T02:29:54.054Z,1005.9
2019-02-06T02:30:55.493Z,1005.9
2019-02-06T02:31:56.863Z,1005.9
2019-02-06T02:32:58.268Z,1005.9
2019-02-06T02:33:59.699Z,1005.9
2019-02-06T02:35:01.068Z,1005.9
2019-02-06T02:36:14.511Z,1005.9
2019-02-06T02:37:03.774Z,1005.9
2019-02-06T02:38:05.154Z,1005.9
2019-02-06T02:39:21.125Z,1005.9
2019-02-06T02:40:22.505Z,1005.9
2019-02-06T02:41:23.860Z,1005.9
2019-02-06T02:42:25.234Z,1005.9
2019-02-06T02:43:26.598Z,1005.9
2019-02-06T02:44:27.972Z,1005.9
2019-02-06T02:45:29.339Z,1005.9
2019-02-06T02:46:30.712Z,1005.8
2019-02-06T02:47:32.085Z,1005.8
2019-02-06T02:48:33.421Z,1005.8
2019-02-06T02:49:34.797Z,1005.9
2019-02-06T02:50:36.118Z,1005.8
2019-02-06T02:51:37.492Z,1005.8
2019-02-06T02:52:38.863Z,1005.9
2019-02-06T02:53:40.231Z,1005.9
2019-02-06T02:54:41.590Z,1005.9
2019-02-06T02:55:42.992Z,1005.9
2019-02-06T02:56:44.361Z,1005.9
2019-02-06T02:57:45.737Z,1005.9
2019-02-06T02:58:47.099Z,1005.9
2019-02-06T02:59:48.475Z,1005.9
2019-02-06T03:00:49.840Z,1005.9
2019-02-06T03:01:51.212Z,1005.9
2019-02-06T03:02:52.581Z,1005.9
2019-02-06T03:03:53.955Z,1005.9
2019-02-06T03:04:55.318Z,1005.8
2019-02-06T03:05:56.691Z,1005.9
2019-02-06T03:06:58.037Z,1005.9
2019-02-06T03:07:59.398Z,1005.9
2019-02-06T03:09:00.772Z,1005.9
2019-02-06T03:10:02.145Z,1005.9
2019-02-06T03:11:03.509Z,1005.9
2019-02-06T03:12:04.882Z,1005.9
2019-02-06T03:13:06.253Z,1005.9
2019-02-06T03:14:07.646Z,1005.9
2019-02-06T03:15:09.010Z,1005.9
2019-02-06T03:16:10.342Z,1005.9
2019-02-06T03:17:11.714Z,1005.9
2019-02-06T03:18:13.082Z,1005.9
2019-02-06T03:19:14.467Z,1005.9
2019-02-06T03:20:15.839Z,1005.9
2019-02-06T03:21:17.209Z,1005.9
2019-02-06T03:22:18.583Z,1006.0
2019-02-06T03:23:19.951Z,1005.9
2019-02-06T03:24:21.323Z,1005.9
2019-02-06T03:25:22.648Z,1005.9
2019-02-06T03:26:24.041Z,1005.9
2019-02-06T03:27:25.403Z,1006.0
2019-02-06T03:28:26.777Z,1005.9
2019-02-06T03:29:28.135Z,1005.9
2019-02-06T03:30:29.508Z,1005.9
2019-02-06T03:31:30.888Z,1005.9
2019-02-06T03:32:32.248Z,1005.9
2019-02-06T03:33:33.620Z,1005.9
2019-02-06T03:34:34.954Z,1005.9
2019-02-06T03:35:36.318Z,1005.8
2019-02-06T03:36:40.447Z,1005.8
2019-02-06T03:37:39.019Z,1005.8
2019-02-06T03:38:40.398Z,1005.8
2019-02-06T03:39:41.756Z,1005.8
2019-02-06T03:40:43.137Z,1005.8
2019-02-06T03:41:44.591Z,1005.8
2019-02-06T03:42:45.842Z,1005.8
2019-02-06T03:43:47.165Z,1005.8
2019-02-06T03:44:48.535Z,1005.8
2019-02-06T03:45:49.907Z,1005.8
2019-02-06T03:46:51.283Z,1005.8
2019-02-06T03:47:52.653Z,1005.8
2019-02-06T03:48:54.025Z,1005.8
2019-02-06T03:49:55.395Z,1005.8
2019-02-06T03:50:56.762Z,1005.8
2019-02-06T03:51:58.095Z,1005.8
2019-02-06T03:52:59.462Z,1005.8
2019-02-06T03:54:00.831Z,1005.8
2019-02-06T03:55:02.220Z,1005.8
2019-02-06T03:56:03.587Z,1005.8
2019-02-06T03:57:04.956Z,1005.8
2019-02-06T03:58:06.318Z,1005.7
2019-02-06T03:59:07.690Z,1005.7
2019-02-06T04:00:09.065Z,1005.7
2019-02-06T04:01:11.561Z,1005.8
2019-02-06T04:02:11.730Z,1005.8
2019-02-06T04:03:13.115Z,1005.8
2019-02-06T04:04:14.475Z,1005.7
2019-02-06T04:05:15.873Z,1005.8
2019-02-06T04:06:17.212Z,1005.8
2019-02-06T04:07:18.580Z,1005.8
2019-02-06T04:08:19.949Z,1005.8
2019-02-06T04:09:21.315Z,1005.8
2019-02-06T04:10:22.655Z,1005.8
2019-02-06T04:11:24.026Z,1005.8
2019-02-06T04:12:25.387Z,1005.8
2019-02-06T04:13:26.775Z,1005.8
2019-02-06T04:14:28.138Z,1005.7
2019-02-06T04:15:29.505Z,1005.7
2019-02-06T04:16:30.889Z,1005.7
2019-02-06T04:17:32.250Z,1005.7
2019-02-06T04:18:33.614Z,1005.8
2019-02-06T04:19:34.954Z,1005.8
2019-02-06T04:20:36.283Z,1005.7
2019-02-06T04:21:37.656Z,1005.7
2019-02-06T04:22:39.095Z,1005.7
2019-02-06T04:23:40.361Z,1005.7
2019-02-06T04:24:41.730Z,1005.7
2019-02-06T04:25:43.925Z,1005.7
2019-02-06T04:26:45.287Z,1005.7
2019-02-06T04:27:46.657Z,1005.7
2019-02-06T04:28:48.029Z,1005.7
2019-02-06T04:29:49.360Z,1005.7
2019-02-06T04:30:50.745Z,1005.7
2019-02-06T04:31:52.111Z,1005.7
2019-02-06T04:32:53.486Z,1005.7
2019-02-06T04:33:54.857Z,1005.7
2019-02-06T04:34:56.220Z,1005.7
2019-02-06T04:35:57.664Z,1005.6
2019-02-06T04:37:06.825Z,1005.6
2019-02-06T04:38:00.251Z,1005.6
2019-02-06T04:39:01.593Z,1005.6
2019-02-06T04:40:02.961Z,1005.7
2019-02-06T04:41:04.331Z,1005.6
2019-02-06T04:42:05.731Z,1005.6
2019-02-06T04:43:07.108Z,1005.6
2019-02-06T04:44:08.474Z,1005.6
2019-02-06T04:45:09.844Z,1005.6
2019-02-06T04:46:11.214Z,1005.6
2019-02-06T04:47:12.587Z,1005.6
2019-02-06T04:48:13.913Z,1005.6
2019-02-06T04:49:15.286Z,1005.6
2019-02-06T04:50:16.655Z,1005.6
2019-02-06T04:51:18.030Z,1005.6
2019-02-06T04:52:19.398Z,1005.6
2019-02-06T04:53:20.770Z,1005.6
2019-02-06T04:54:22.136Z,1005.6
2019-02-06T04:55:23.503Z,1005.6
2019-02-06T04:56:24.872Z,1005.6
2019-02-06T04:57:26.204Z,1005.6
2019-02-06T04:58:27.581Z,1005.6
2019-02-06T04:59:28.947Z,1005.6
2019-02-06T05:00:30.316Z,1005.5
2019-02-06T05:01:31.696Z,1005.6
2019-02-06T05:02:33.074Z,1005.5
2019-02-06T05:03:34.441Z,1005.5
2019-02-06T05:04:35.802Z,1005.5
2019-02-06T05:05:37.196Z,1005.5
2019-02-06T05:06:38.512Z,1005.5
2019-02-06T05:07:39.889Z,1005.5
2019-02-06T05:08:41.254Z,1005.5
2019-02-06T05:09:42.623Z,1005.6
2019-02-06T05:10:43.986Z,1005.5
2019-02-06T05:11:45.357Z,1005.5
2019-02-06T05:12:46.733Z,1005.5
2019-02-06T05:13:48.098Z,1005.5
2019-02-06T05:14:49.435Z,1005.4
2019-02-06T05:15:50.795Z,1005.5
2019-02-06T05:16:52.165Z,1005.5
2019-02-06T05:17:55.848Z,1005.4
2019-02-06T05:18:54.877Z,1005.5
2019-02-06T05:19:56.242Z,1005.4
2019-02-06T05:20:57.617Z,1005.5
2019-02-06T05:21:58.999Z,1005.5
2019-02-06T05:23:00.355Z,1005.4
2019-02-06T05:24:01.692Z,1005.4
2019-02-06T05:25:03.059Z,1005.4
2019-02-06T05:26:04.427Z,1005.4
2019-02-06T05:27:05.796Z,1005.4
2019-02-06T05:28:07.166Z,1005.5
2019-02-06T05:29:08.578Z,1005.4
2019-02-06T05:30:09.906Z,1005.4
2019-02-06T05:31:11.273Z,1005.5
2019-02-06T05:32:12.639Z,1005.5
2019-02-06T05:33:14.901Z,1005.5
2019-02-06T05:34:16.267Z,1005.5
2019-02-06T05:35:17.638Z,1005.6
2019-02-06T05:36:19.000Z,1005.6
2019-02-06T05:37:31.655Z,1005.6
2019-02-06T05:38:21.693Z,1005.6
2019-02-06T05:39:23.073Z,1005.6
2019-02-06T05:40:24.433Z,1005.6
2019-02-06T05:41:25.808Z,1005.7
2019-02-06T05:42:27.144Z,1005.6
2019-02-06T05:43:28.624Z,1005.7
2019-02-06T05:44:29.851Z,1005.7
2019-02-06T05:45:31.220Z,1005.6
2019-02-06T05:46:32.586Z,1005.6
2019-02-06T05:47:33.985Z,1005.6
2019-02-06T05:48:35.360Z,1005.7
2019-02-06T05:49:36.737Z,1005.7
2019-02-06T05:50:38.092Z,1005.7
2019-02-06T05:51:39.469Z,1005.7
2019-02-06T05:52:40.884Z,1005.7
2019-02-06T05:53:42.205Z,1005.6
2019-02-06T05:54:43.582Z,1005.6
2019-02-06T05:55:44.947Z,1005.6
2019-02-06T05:56:46.324Z,1005.6
2019-02-06T05:57:47.694Z,1005.6
2019-02-06T05:58:49.059Z,1005.7
2019-02-06T05:59:50.422Z,1005.7
2019-02-06T06:00:51.769Z,1005.6
2019-02-06T06:01:53.141Z,1005.6
2019-02-06T06:02:54.540Z,1005.6
2019-02-06T06:03:55.915Z,1005.6
2019-02-06T06:04:57.283Z,1005.6
2019-02-06T06:05:58.657Z,1005.6
2019-02-06T06:07:00.018Z,1005.6
2019-02-06T06:08:01.387Z,1005.6
2019-02-06T06:09:02.776Z,1005.6
2019-02-06T06:10:04.139Z,1005.6
2019-02-06T06:11:05.486Z,1005.5
2019-02-06T06:12:06.863Z,1005.6
2019-02-06T06:13:08.236Z,1005.6
2019-02-06T06:14:09.601Z,1005.6
2019-02-06T06:15:10.989Z,1005.6
2019-02-06T06:16:12.382Z,1005.6
2019-02-06T06:17:13.757Z,1005.6
2019-02-06T06:18:15.114Z,1005.6
2019-02-06T06:19:16.480Z,1005.7
2019-02-06T06:20:17.871Z,1005.6
2019-02-06T06:21:19.245Z,1005.7
2019-02-06T06:22:20.619Z,1005.7
2019-02-06T06:23:21.973Z,1005.7
2019-02-06T06:24:23.351Z,1005.7
2019-02-06T06:25:24.812Z,1005.7
2019-02-06T06:26:26.063Z,1005.7
2019-02-06T06:27:27.404Z,1005.7
2019-02-06T06:28:28.774Z,1005.7
2019-02-06T06:29:30.139Z,1005.7
2019-02-06T06:30:31.516Z,1005.8
2019-02-06T06:31:32.880Z,1005.7
2019-02-06T06:32:34.249Z,1005.8
2019-02-06T06:33:35.623Z,1005.8
2019-02-06T06:34:36.989Z,1005.8
2019-02-06T06:35:38.358Z,1005.8
2019-02-06T06:36:39.696Z,1005.8
2019-02-06T06:37:41.477Z,1005.8
2019-02-06T06:38:42.394Z,1005.8
2019-02-06T06:39:43.767Z,1005.8
2019-02-06T06:40:45.131Z,1005.7
2019-02-06T06:41:46.500Z,1005.7
2019-02-06T06:42:47.868Z,1005.7
2019-02-06T06:43:49.254Z,1005.7
2019-02-06T06:44:50.619Z,1005.7
2019-02-06T06:45:51.964Z,1005.7
2019-02-06T06:46:53.343Z,1005.7
2019-02-06T06:47:54.709Z,1005.7
2019-02-06T06:48:56.072Z,1005.7
2019-02-06T06:49:57.438Z,1005.7
2019-02-06T06:50:58.805Z,1005.7
2019-02-06T06:52:00.173Z,1005.7
2019-02-06T06:53:01.545Z,1005.7
2019-02-06T06:54:02.914Z,1005.7
2019-02-06T06:55:04.247Z,1005.6
2019-02-06T06:56:05.621Z,1005.6
2019-02-06T06:57:06.983Z,1005.6
2019-02-06T06:58:08.415Z,1005.6
2019-02-06T06:59:09.804Z,1005.6
2019-02-06T07:00:11.179Z,1005.6
2019-02-06T07:01:12.546Z,1005.6
2019-02-06T07:02:13.919Z,1005.6
2019-02-06T07:03:15.291Z,1005.6
2019-02-06T07:04:16.762Z,1005.6
2019-02-06T07:05:18.023Z,1005.6
2019-02-06T07:06:19.392Z,1005.6
2019-02-06T07:07:20.771Z,1005.6
2019-02-06T07:08:22.151Z,1005.7
2019-02-06T07:09:23.521Z,1005.7
2019-02-06T07:10:24.891Z,1005.7
2019-02-06T07:11:26.258Z,1005.7
2019-02-06T07:12:27.674Z,1005.7
2019-02-06T07:13:28.957Z,1005.7
2019-02-06T07:14:30.347Z,1005.7
2019-02-06T07:15:31.715Z,1005.6
2019-02-06T07:16:33.116Z,1005.7
2019-02-06T07:17:34.492Z,1005.7
2019-02-06T07:18:35.863Z,1005.7
2019-02-06T07:19:37.229Z,1005.7
2019-02-06T07:20:38.603Z,1005.7
2019-02-06T07:21:39.977Z,1005.7
2019-02-06T07:22:41.316Z,1005.7
2019-02-06T07:23:42.684Z,1005.7
2019-02-06T07:24:44.059Z,1005.7
2019-02-06T07:25:45.427Z,1005.7
2019-02-06T07:26:46.802Z,1005.7
2019-02-06T07:27:48.191Z,1005.7
2019-02-06T07:28:49.615Z,1005.7
2019-02-06T07:29:51.059Z,1005.7
2019-02-06T07:30:52.507Z,1005.7
2019-02-06T07:31:53.879Z,1005.7
2019-02-06T07:32:55.224Z,1005.7
2019-02-06T07:33:56.599Z,1005.7
2019-02-06T07:34:57.963Z,1005.8
2019-02-06T07:35:59.340Z,1005.8
2019-02-06T07:37:00.710Z,1005.7
2019-02-06T07:38:02.088Z,1005.8
2019-02-06T07:39:03.458Z,1005.8
2019-02-06T07:40:04.819Z,1005.8
2019-02-06T07:41:06.166Z,1005.8
2019-02-06T07:42:07.546Z,1005.8
2019-02-06T07:43:08.918Z,1005.8
2019-02-06T07:44:13.297Z,1005.8
2019-02-06T07:45:11.672Z,1005.8
2019-02-06T07:46:13.090Z,1005.9
2019-02-06T07:47:14.545Z,1005.9
2019-02-06T07:48:16.022Z,1005.9
2019-02-06T07:49:17.392Z,1005.8
2019-02-06T07:50:18.766Z,1005.8
2019-02-06T07:51:20.120Z,1005.8
2019-02-06T07:52:21.496Z,1005.9
2019-02-06T07:53:22.860Z,1005.9
2019-02-06T07:54:24.269Z,1005.9
2019-02-06T07:55:25.641Z,1005.9
2019-02-06T07:56:27.000Z,1006.0
2019-02-06T07:57:28.380Z,1006.0
2019-02-06T07:58:29.762Z,1006.0
2019-02-06T07:59:31.161Z,1006.0
2019-02-06T08:00:32.466Z,1006.0
2019-02-06T08:01:33.848Z,1006.0
2019-02-06T08:02:35.260Z,1006.0
2019-02-06T08:03:36.717Z,1006.0
2019-02-06T08:04:38.108Z,1006.0
2019-02-06T08:05:39.531Z,1006.0
2019-02-06T08:06:40.902Z,1006.0
2019-02-06T08:07:42.254Z,1006.0
2019-02-06T08:08:43.603Z,1006.0
2019-02-06T08:09:44.971Z,1006.0
2019-02-06T08:10:46.345Z,1006.0
2019-02-06T08:11:47.721Z,1006.0
2019-02-06T08:12:49.099Z,1005.9
2019-02-06T08:13:50.466Z,1006.0
2019-02-06T08:14:51.851Z,1006.0
2019-02-06T08:15:53.267Z,1006.0
2019-02-06T08:16:54.710Z,1006.0
2019-02-06T08:17:56.075Z,1005.9
2019-02-06T08:18:57.441Z,1006.0
2019-02-06T08:19:58.928Z,1006.0
2019-02-06T08:21:00.165Z,1006.0
2019-02-06T08:22:01.534Z,1006.0
2019-02-06T08:23:02.902Z,1006.1
2019-02-06T08:24:04.271Z,1006.0
2019-02-06T08:25:05.615Z,1006.0
2019-02-06T08:26:06.989Z,1006.0
2019-02-06T08:27:08.371Z,1006.0
2019-02-06T08:28:09.784Z,1006.0
2019-02-06T08:29:11.138Z,1006.0
2019-02-06T08:30:12.574Z,1006.0
2019-02-06T08:31:14.065Z,1006.0
2019-02-06T08:32:15.590Z,1006.0
2019-02-06T08:33:16.964Z,1005.9
2019-02-06T08:34:18.338Z,1006.0
2019-02-06T08:35:19.703Z,1006.0
2019-02-06T08:36:21.042Z,1006.0
2019-02-06T08:37:22.431Z,1006.0
2019-02-06T08:38:23.802Z,1006.0
2019-02-06T08:39:25.172Z,1006.0
2019-02-06T08:40:26.555Z,1006.0
2019-02-06T08:41:27.939Z,1006.0
2019-02-06T08:42:29.300Z,1006.0
2019-02-06T08:43:30.783Z,1006.1
2019-02-06T08:44:32.018Z,1006.1
2019-02-06T08:45:33.443Z,1006.1
2019-02-06T08:46:35.059Z,1006.0
2019-02-06T08:47:36.418Z,1006.1
2019-02-06T08:48:37.811Z,1006.1
2019-02-06T08:49:39.230Z,1006.0
2019-02-06T08:50:40.581Z,1006.1
2019-02-06T08:51:41.948Z,1006.1
2019-02-06T08:52:43.326Z,1006.1
2019-02-06T08:53:44.694Z,1006.1
2019-02-06T08:54:46.039Z,1006.1
2019-02-06T08:55:47.421Z,1006.1
2019-02-06T08:56:48.809Z,1006.1
2019-02-06T08:57:50.173Z,1006.1
2019-02-06T08:58:51.546Z,1006.1
2019-02-06T08:59:53.063Z,1006.1
2019-02-06T09:00:54.529Z,1006.1
2019-02-06T09:01:55.911Z,1006.1
2019-02-06T09:02:57.292Z,1006.1
2019-02-06T09:03:58.623Z,1006.1
2019-02-06T09:05:00.012Z,1006.0
2019-02-06T09:06:01.384Z,1006.0
2019-02-06T09:07:02.754Z,1006.0
2019-02-06T09:08:04.167Z,1006.0
2019-02-06T09:09:05.537Z,1006.0
2019-02-06T09:10:06.966Z,1006.0
2019-02-06T09:11:08.340Z,1006.0
2019-02-06T09:12:09.761Z,1006.0
2019-02-06T09:13:11.117Z,1006.0
2019-02-06T09:14:12.731Z,1006.0
2019-02-06T09:15:14.033Z,1006.0
2019-02-06T09:16:15.407Z,1006.0
2019-02-06T09:17:16.784Z,1006.0
2019-02-06T09:18:18.164Z,1006.0
2019-02-06T09:19:19.534Z,1006.0
2019-02-06T09:20:20.915Z,1005.9
2019-02-06T09:21:22.280Z,1005.9
2019-02-06T09:22:23.620Z,1005.9
2019-02-06T09:23:25.002Z,1005.9
2019-02-06T09:24:26.419Z,1005.9
2019-02-06T09:25:27.806Z,1005.9
2019-02-06T09:26:29.197Z,1005.9
2019-02-06T09:27:30.568Z,1005.9
2019-02-06T09:28:31.944Z,1005.9
2019-02-06T09:29:33.447Z,1005.9
2019-02-06T09:30:34.851Z,1005.9
2019-02-06T09:31:36.192Z,1005.8
2019-02-06T09:32:37.591Z,1005.9
2019-02-06T09:33:38.940Z,1005.9
2019-02-06T09:34:40.315Z,1005.9
2019-02-06T09:35:41.685Z,1005.9
2019-02-06T09:36:43.075Z,1005.9
2019-02-06T09:37:44.454Z,1005.9
2019-02-06T09:38:45.837Z,1005.9
2019-02-06T09:39:47.211Z,1005.9
2019-02-06T09:40:49.501Z,1005.9
2019-02-06T09:41:49.892Z,1005.9
2019-02-06T09:42:51.267Z,1005.9
2019-02-06T09:43:52.819Z,1005.9
2019-02-06T09:44:54.442Z,1005.8
2019-02-06T09:45:57.075Z,1005.8
2019-02-06T09:46:57.156Z,1005.9
2019-02-06T09:47:58.533Z,1005.8
2019-02-06T09:48:59.904Z,1005.8
2019-02-06T09:50:01.274Z,1005.8
2019-02-06T09:51:02.660Z,1005.8
2019-02-06T09:52:04.040Z,1005.8
2019-02-06T09:53:05.398Z,1005.9
2019-02-06T09:54:06.777Z,1005.8
2019-02-06T09:55:08.147Z,1005.8
2019-02-06T09:56:09.513Z,1005.8
2019-02-06T09:57:10.886Z,1005.8
2019-02-06T09:58:12.317Z,1005.8
2019-02-06T09:59:13.787Z,1005.8
2019-02-06T10:00:15.163Z,1005.8
2019-02-06T10:01:16.533Z,1005.8
2019-02-06T10:02:17.934Z,1005.8
2019-02-06T10:03:19.283Z,1005.8
2019-02-06T10:04:20.675Z,1005.8
2019-02-06T10:05:22.032Z,1005.7
2019-02-06T10:06:23.401Z,1005.7
2019-02-06T10:07:24.738Z,1005.7
2019-02-06T10:08:26.123Z,1005.7
2019-02-06T10:09:27.498Z,1005.7
2019-02-06T10:10:28.873Z,1005.7
2019-02-06T10:11:30.263Z,1005.7
2019-02-06T10:12:31.661Z,1005.7
2019-02-06T10:13:33.081Z,1005.7
2019-02-06T10:14:34.592Z,1005.6
2019-02-06T10:15:35.963Z,1005.7
2019-02-06T10:16:37.314Z,1005.6
2019-02-06T10:17:38.693Z,1005.6
2019-02-06T10:18:40.068Z,1005.6
2019-02-06T10:19:42.497Z,1005.6
2019-02-06T10:20:42.817Z,1005.7
2019-02-06T10:21:44.189Z,1005.7
2019-02-06T10:22:45.566Z,1005.6
2019-02-06T10:23:46.945Z,1005.6
2019-02-06T10:24:48.330Z,1005.6
2019-02-06T10:25:49.675Z,1005.6
2019-02-06T10:26:51.054Z,1005.6
2019-02-06T10:27:52.499Z,1005.6
2019-02-06T10:28:53.940Z,1005.5
2019-02-06T10:29:55.317Z,1005.5
2019-02-06T10:30:56.684Z,1005.5
2019-02-06T10:31:58.068Z,1005.5
2019-02-06T10:32:59.440Z,1005.5
2019-02-06T10:34:00.811Z,1005.4
2019-02-06T10:35:02.209Z,1005.4
2019-02-06T10:36:03.551Z,1005.4
2019-02-06T10:37:04.922Z,1005.4
2019-02-06T10:38:06.294Z,1005.4
2019-02-06T10:39:07.687Z,1005.4
2019-02-06T10:40:09.069Z,1005.4
2019-02-06T10:41:10.450Z,1005.4
2019-02-06T10:42:11.967Z,1005.4
2019-02-06T10:43:13.392Z,1005.4
2019-02-06T10:44:14.778Z,1005.4
2019-02-06T10:45:16.147Z,1005.4
2019-02-06T10:46:18.346Z,1005.4
2019-02-06T10:47:18.989Z,1005.4
2019-02-06T10:48:20.378Z,1005.4
2019-02-06T10:49:21.755Z,1005.4
2019-02-06T10:50:23.123Z,1005.4
2019-02-06T10:51:24.507Z,1005.4
2019-02-06T10:52:25.870Z,1005.3
2019-02-06T10:53:27.239Z,1005.3
2019-02-06T10:54:28.656Z,1005.3
2019-02-06T10:55:30.045Z,1005.3
2019-02-06T10:56:31.498Z,1005.2
2019-02-06T10:57:32.873Z,1005.2
2019-02-06T10:58:34.251Z,1005.2
2019-02-06T10:59:35.700Z,1005.2
2019-02-06T11:00:37.172Z,1005.1
2019-02-06T11:01:38.582Z,1005.1
2019-02-06T11:02:39.954Z,1005.1
2019-02-06T11:03:41.299Z,1005.2
2019-02-06T11:04:42.668Z,1005.1
2019-02-06T11:05:44.049Z,1005.1
2019-02-06T11:06:45.424Z,1005.1
2019-02-06T11:07:46.809Z,1005.1
2019-02-06T11:08:48.187Z,1005.0
2019-02-06T11:09:49.562Z,1005.0
2019-02-06T11:10:51.060Z,1005.0
2019-02-06T11:11:52.503Z,1005.0
2019-02-06T11:12:53.800Z,1005.0
2019-02-06T11:13:55.232Z,1004.9
2019-02-06T11:14:56.705Z,1004.9
2019-02-06T11:15:58.262Z,1004.9
2019-02-06T11:16:59.602Z,1004.9
2019-02-06T11:18:01.147Z,1004.9
2019-02-06T11:19:02.311Z,1004.9
2019-02-06T11:20:03.719Z,1004.9
2019-02-06T11:21:05.039Z,1004.9
2019-02-06T11:22:06.449Z,1004.9
2019-02-06T11:23:07.836Z,1004.9
2019-02-06T11:24:09.218Z,1004.8
2019-02-06T11:25:10.614Z,1004.9
2019-02-06T11:26:11.984Z,1004.9
2019-02-06T11:27:13.363Z,1004.8
2019-02-06T11:28:14.808Z,1004.8
2019-02-06T11:29:16.391Z,1004.8
2019-02-06T11:30:17.838Z,1004.8
2019-02-06T11:31:19.193Z,1004.8
2019-02-06T11:32:20.577Z,1004.8
2019-02-06T11:33:21.974Z,1004.8
2019-02-06T11:34:23.328Z,1004.8
2019-02-06T11:35:24.702Z,1004.8
2019-02-06T11:36:26.077Z,1004.7
2019-02-06T11:37:27.461Z,1004.7
2019-02-06T11:38:28.830Z,1004.7
2019-02-06T11:39:30.218Z,1004.7
2019-02-06T11:40:31.559Z,1004.7
2019-02-06T11:41:32.941Z,1004.7
2019-02-06T11:42:34.317Z,1004.6
2019-02-06T11:43:35.765Z,1004.6
2019-02-06T11:44:37.273Z,1004.6
2019-02-06T11:45:38.661Z,1004.5
2019-02-06T11:46:40.045Z,1004.6
2019-02-06T11:47:41.748Z,1004.5
2019-02-06T11:48:43.432Z,1004.5
2019-02-06T11:49:44.506Z,1004.6
2019-02-06T11:50:45.881Z,1004.5
2019-02-06T11:51:47.257Z,1004.5
2019-02-06T11:52:48.636Z,1004.5
2019-02-06T11:53:50.018Z,1004.4
2019-02-06T11:54:51.389Z,1004.4
2019-02-06T11:55:52.756Z,1004.4
2019-02-06T11:56:54.135Z,1004.4
2019-02-06T11:57:55.695Z,1004.4
2019-02-06T11:58:57.070Z,1004.4
2019-02-06T11:59:58.450Z,1004.4
2019-02-06T12:00:59.864Z,1004.4
2019-02-06T12:02:01.245Z,1004.4
2019-02-06T12:03:02.628Z,1004.3
2019-02-06T12:04:04.003Z,1004.4
2019-02-06T12:05:05.384Z,1004.3
2019-02-06T12:06:07.140Z,1004.3
2019-02-06T12:07:08.839Z,1004.3
2019-02-06T12:08:12.476Z,1004.3
2019-02-06T12:09:11.519Z,1004.3
2019-02-06T12:10:12.905Z,1004.2
2019-02-06T12:11:14.370Z,1004.2
2019-02-06T12:12:15.614Z,1004.2
2019-02-06T12:13:17.022Z,1004.2
2019-02-06T12:14:18.376Z,1004.1
2019-02-06T12:15:19.751Z,1004.1
2019-02-06T12:16:21.182Z,1004.1
2019-02-06T12:17:22.469Z,1004.1
2019-02-06T12:18:23.850Z,1004.0
2019-02-06T12:19:25.253Z,1004.0
2019-02-06T12:20:26.610Z,1004.0
2019-02-06T12:21:28.011Z,1004.0
2019-02-06T12:22:29.382Z,1004.0
2019-02-06T12:23:32.256Z,1003.9
2019-02-06T12:24:32.149Z,1003.9
2019-02-06T12:25:34.508Z,1003.9
2019-02-06T12:26:34.861Z,1003.8
2019-02-06T12:27:36.303Z,1003.9
2019-02-06T12:28:37.746Z,1003.8
2019-02-06T12:29:39.248Z,1003.8
2019-02-06T12:30:40.623Z,1003.8
2019-02-06T12:31:42.044Z,1003.8
2019-02-06T12:32:52.026Z,1003.8
2019-02-06T12:33:44.728Z,1003.7
2019-02-06T12:34:46.065Z,1003.7
2019-02-06T12:35:47.453Z,1003.8
2019-02-06T12:36:48.816Z,1003.7
2019-02-06T12:37:50.195Z,1003.7
2019-02-06T12:38:53.654Z,1003.6
2019-02-06T12:39:52.993Z,1003.6
2019-02-06T12:40:54.306Z,1003.6
2019-02-06T12:41:55.675Z,1003.6
2019-02-06T12:42:57.246Z,1003.5
2019-02-06T12:43:58.763Z,1003.5
2019-02-06T12:45:00.316Z,1003.5
2019-02-06T12:46:01.460Z,1003.4